Time;durP1;ratioP1;P1;durP2;ratioP2;P2;SDS_P1;SDS_P2;PMS_P1;PMS_P2;Temp;Humidity;BMP_temperature;BMP_pressure;BME280_temperature;BME280_humidity;BME280_pressure;Samples;Min_cycle;Max_cycle;Signal;HPM_P1;HPM_P2
2023/07/22 00:00:39;;;;;;;6.25;1.77;;;;;;;14.29;100.00;100275.69;5027090;28;20052;-65
2023/07/22 00:03:05;;;;;;;4.03;1.50;;;;;;;14.31;100.00;100282.56;5032232;28;20065;-65
2023/07/22 00:05:33;;;;;;;5.40;1.70;;;;;;;14.24;100.00;100271.53;5017555;28;20414;-65
2023/07/22 00:08:00;;;;;;;5.05;1.85;;;;;;;14.11;100.00;100270.59;5023495;28;20069;-65
2023/07/22 00:10:26;;;;;;;5.95;1.63;;;;;;;14.15;100.00;100271.25;5020644;28;20119;-65
2023/07/22 00:12:53;;;;;;;5.60;1.88;;;;;;;14.08;100.00;100260.25;5025259;28;20054;-65
2023/07/22 00:15:22;;;;;;;4.10;1.42;;;;;;;14.18;100.00;100273.69;5008234;28;20574;-65
2023/07/22 00:17:49;;;;;;;4.60;1.58;;;;;;;14.11;100.00;100264.47;5025950;28;20050;-65
2023/07/22 00:20:16;;;;;;;4.75;1.50;;;;;;;14.14;100.00;100272.19;5017248;28;20073;-65
2023/07/22 00:22:43;;;;;;;4.85;1.80;;;;;;;14.18;100.00;100263.16;5029460;28;20041;-65
2023/07/22 00:25:11;;;;;;;5.97;1.92;;;;;;;14.20;100.00;100254.25;5030895;28;20056;-65
2023/07/22 00:27:38;;;;;;;9.25;2.00;;;;;;;14.24;100.00;100266.28;5031170;28;20049;-65
2023/07/22 00:30:07;;;;;;;6.63;1.77;;;;;;;14.11;100.00;100259.19;5025952;28;20077;-65
2023/07/22 00:32:34;;;;;;;5.38;1.83;;;;;;;14.10;100.00;100257.53;5027280;28;20045;-65
2023/07/22 00:35:01;;;;;;;5.57;2.00;;;;;;;14.00;100.00;100252.78;5032422;28;20073;-65
2023/07/22 00:37:28;;;;;;;5.30;1.48;;;;;;;14.12;100.00;100261.75;5014413;28;20045;-65
2023/07/22 00:39:55;;;;;;;6.55;1.60;;;;;;;14.17;100.00;100257.06;5027841;28;20049;-65
2023/07/22 00:42:21;;;;;;;6.80;2.00;;;;;;;14.11;100.00;100236.38;5024281;28;20479;-65
2023/07/22 00:44:49;;;;;;;5.38;1.85;;;;;;;14.08;100.00;100239.19;5031749;28;20060;-65
2023/07/22 00:47:17;;;;;;;5.85;1.70;;;;;;;14.03;100.00;100244.72;5018404;28;20415;-65
2023/07/22 00:49:47;;;;;;;5.07;1.92;;;;;;;14.01;100.00;100225.53;5029253;28;20049;-65
2023/07/22 00:52:14;;;;;;;4.22;1.58;;;;;;;14.25;100.00;100227.63;5030799;28;20052;-65
2023/07/22 00:54:41;;;;;;;4.72;1.67;;;;;;;14.21;100.00;100226.13;5032367;28;20072;-65
2023/07/22 00:57:09;;;;;;;4.15;1.45;;;;;;;14.14;100.00;100222.16;5032092;28;20056;-65
2023/07/22 00:59:36;;;;;;;4.90;1.70;;;;;;;14.15;100.00;100229.97;5031062;28;20054;-65
2023/07/22 01:02:02;;;;;;;6.38;1.60;;;;;;;14.24;100.00;100225.94;5031581;28;20384;-65
2023/07/22 01:04:34;;;;;;;4.53;1.58;;;;;;;14.23;100.00;100225.06;5031203;28;20045;-65
2023/07/22 01:07:06;;;;;;;3.03;1.30;;;;;;;14.24;100.00;100215.41;5030756;28;20072;-65
2023/07/22 01:09:39;;;;;;;4.82;1.50;;;;;;;14.16;100.00;100207.97;5041685;28;20057;-65
2023/07/22 01:12:08;;;;;;;4.85;1.58;;;;;;;14.15;100.00;100214.19;5014553;28;20053;-65
2023/07/22 01:14:39;;;;;;;5.07;1.88;;;;;;;14.04;100.00;100208.69;5019055;28;20494;-65
2023/07/22 01:17:09;;;;;;;5.88;1.73;;;;;;;13.84;100.00;100187.06;5020414;28;20091;-65
2023/07/22 01:19:37;;;;;;;5.43;2.08;;;;;;;13.74;100.00;100196.47;5038744;28;20080;-65
2023/07/22 01:22:07;;;;;;;6.15;1.90;;;;;;;13.54;100.00;100176.59;5031065;28;20057;-65
2023/07/22 01:24:34;;;;;;;5.50;1.75;;;;;;;13.69;100.00;100188.00;5042715;28;20056;-65
2023/07/22 01:27:03;;;;;;;4.90;1.65;;;;;;;13.60;100.00;100188.56;5047415;28;20152;-65
2023/07/22 01:29:30;;;;;;;3.42;1.48;;;;;;;13.68;100.00;100195.03;5031279;28;20057;-65
2023/07/22 01:31:57;;;;;;;6.32;2.10;;;;;;;13.76;100.00;100189.31;5027051;28;20049;-65
2023/07/22 01:34:24;;;;;;;5.57;1.63;;;;;;;13.79;100.00;100189.16;5039279;28;20416;-65
2023/07/22 01:36:51;;;;;;;4.75;1.65;;;;;;;13.88;100.00;100186.88;5039116;28;20479;-65
2023/07/22 01:39:19;;;;;;;4.57;1.60;;;;;;;13.78;100.00;100171.66;5051156;28;20670;-65
2023/07/22 01:41:46;;;;;;;5.00;1.60;;;;;;;13.83;100.00;100180.13;5037005;28;20474;-65
2023/07/22 01:44:12;;;;;;;3.88;1.33;;;;;;;13.74;100.00;100178.06;5045126;28;20391;-65
2023/07/22 01:46:39;;;;;;;5.07;1.50;;;;;;;13.74;100.00;100175.41;5031795;28;20429;-65
2023/07/22 01:49:09;;;;;;;4.43;1.40;;;;;;;13.55;100.00;100170.41;5030390;28;20053;-65
2023/07/22 01:51:45;;;;;;;3.58;1.40;;;;;;;13.37;100.00;100155.69;5030230;28;20221;-64
2023/07/22 01:54:12;;;;;;;4.07;1.48;;;;;;;13.46;100.00;100161.25;5033435;28;20065;-64
2023/07/22 01:56:39;;;;;;;5.18;1.60;;;;;;;13.38;100.00;100165.28;5050486;28;20057;-65
2023/07/22 01:59:06;;;;;;;6.45;2.00;;;;;;;13.29;100.00;100161.38;5045502;28;20077;-65
2023/07/22 02:01:33;;;;;;;5.43;1.80;;;;;;;13.28;100.00;100157.91;5028659;28;20056;-64
2023/07/22 02:04:00;;;;;;;5.97;1.85;;;;;;;13.19;100.00;100160.19;5029994;28;20049;-65
2023/07/22 02:06:28;;;;;;;4.15;1.52;;;;;;;13.15;100.00;100162.16;5037247;28;20064;-64
2023/07/22 02:08:56;;;;;;;5.50;1.67;;;;;;;13.05;100.00;100158.34;5050067;28;20045;-64
2023/07/22 02:11:23;;;;;;;4.35;1.52;;;;;;;13.01;100.00;100159.47;5026221;28;20106;-64
2023/07/22 02:13:49;;;;;;;4.90;1.73;;;;;;;13.00;100.00;100158.63;5039155;28;20056;-64
2023/07/22 02:16:16;;;;;;;7.18;1.50;;;;;;;12.90;100.00;100155.66;5047149;28;20366;-64
2023/07/22 02:18:43;;;;;;;5.03;1.63;;;;;;;12.84;100.00;100145.53;5043074;28;20071;-64
2023/07/22 02:21:10;;;;;;;5.03;1.70;;;;;;;12.63;100.00;100134.44;5029755;28;20057;-65
2023/07/22 02:23:36;;;;;;;4.88;1.60;;;;;;;12.70;100.00;100148.91;5036172;28;20048;-64
2023/07/22 02:26:03;;;;;;;4.85;1.85;;;;;;;12.69;100.00;100156.88;5042477;28;20478;-64
2023/07/22 02:28:30;;;;;;;4.97;1.88;;;;;;;12.73;100.00;100140.03;5035988;28;20053;-64
2023/07/22 02:31:02;;;;;;;5.32;1.70;;;;;;;12.73;100.00;100140.88;5037577;28;20060;-64
2023/07/22 02:33:29;;;;;;;4.93;1.70;;;;;;;12.63;100.00;100134.44;5039511;28;20045;-64
2023/07/22 02:35:55;;;;;;;5.22;1.92;;;;;;;12.58;100.00;100138.25;5045078;28;20460;-64
2023/07/22 02:38:22;;;;;;;6.93;1.75;;;;;;;12.55;100.00;100131.38;5024999;28;20156;-64
2023/07/22 02:40:49;;;;;;;4.43;1.60;;;;;;;12.36;100.00;100134.19;5011832;28;20046;-65
2023/07/22 02:43:15;;;;;;;3.35;1.30;;;;;;;12.40;100.00;100116.50;5030584;28;20060;-64
2023/07/22 02:45:42;;;;;;;4.63;1.50;;;;;;;12.56;100.00;100130.47;5049071;28;20049;-65
2023/07/22 02:48:09;;;;;;;4.25;1.23;;;;;;;12.54;100.00;100121.81;5050123;28;20048;-65
2023/07/22 02:50:36;;;;;;;3.72;1.42;;;;;;;12.43;100.00;100130.28;5032214;28;20059;-64
2023/07/22 02:53:03;;;;;;;4.53;1.63;;;;;;;12.39;100.00;100114.78;5039756;28;20135;-64
2023/07/22 02:55:30;;;;;;;4.15;1.50;;;;;;;12.41;100.00;100131.28;5046384;28;20051;-65
2023/07/22 02:57:57;;;;;;;5.40;2.00;;;;;;;12.31;100.00;100118.69;5045767;28;20041;-65
2023/07/22 03:00:23;;;;;;;4.72;1.60;;;;;;;12.19;100.00;100126.38;5034800;28;20407;-64
2023/07/22 03:03:00;;;;;;;6.05;1.65;;;;;;;12.12;100.00;100139.81;5031070;28;20605;-64
2023/07/22 03:05:28;;;;;;;3.90;1.60;;;;;;;12.01;100.00;100136.09;5043643;28;20049;-64
2023/07/22 03:07:55;;;;;;;7.40;1.70;;;;;;;12.18;100.00;100143.03;5031301;28;20478;-64
2023/07/22 03:10:22;;;;;;;5.13;1.73;;;;;;;12.07;100.00;100141.84;5040491;28;20053;-65
2023/07/22 03:12:49;;;;;;;5.72;1.83;;;;;;;12.09;100.00;100136.50;5040455;28;20498;-64
2023/07/22 03:15:16;;;;;;;4.80;1.55;;;;;;;12.17;100.00;100144.00;5040969;28;20506;-64
2023/07/22 03:17:43;;;;;;;4.90;1.73;;;;;;;11.91;100.00;100112.09;5045056;28;20132;-64
2023/07/22 03:20:14;;;;;;;5.95;1.52;;;;;;;12.09;100.00;100136.50;5011060;28;20053;-64
2023/07/22 03:22:41;;;;;;;5.03;1.63;;;;;;;11.92;100.00;100130.38;5030092;28;20123;-64
2023/07/22 03:25:13;;;;;;;6.82;2.03;;;;;;;11.97;100.00;100130.16;5047458;28;20095;-64
2023/07/22 03:27:39;;;;;;;3.53;1.40;;;;;;;11.99;100.00;100130.91;5022264;28;20046;-64
2023/07/22 03:30:10;;;;;;;5.43;1.90;;;;;;;12.06;100.00;100141.94;5034579;28;20049;-64
2023/07/22 03:32:37;;;;;;;4.57;1.63;;;;;;;12.08;100.00;100137.47;5040674;28;20054;-64
2023/07/22 03:35:04;;;;;;;5.45;1.80;;;;;;;12.07;100.00;100133.97;5026970;28;20045;-64
2023/07/22 03:37:31;;;;;;;5.35;1.52;;;;;;;11.96;100.00;100125.81;5030491;28;20056;-64
2023/07/22 03:39:59;;;;;;;4.68;1.45;;;;;;;11.93;100.00;100139.09;5025699;28;20499;-64
2023/07/22 03:42:25;;;;;;;6.22;1.45;;;;;;;11.86;100.00;100129.81;5043176;28;20228;-64
2023/07/22 03:44:52;;;;;;;8.15;1.70;;;;;;;11.81;100.00;100126.59;5041910;28;20056;-65
2023/07/22 03:47:19;;;;;;;3.92;1.52;;;;;;;11.91;100.00;100131.31;5045244;28;20064;-64
2023/07/22 03:49:46;;;;;;;4.63;1.67;;;;;;;11.86;100.00;100117.53;5028441;28;20065;-64
2023/07/22 03:52:14;;;;;;;6.93;1.83;;;;;;;11.90;100.00;100121.75;5030268;28;20064;-65
2023/07/22 03:54:41;;;;;;;6.10;1.50;;;;;;;11.98;100.00;100128.38;5039685;28;20072;-64
2023/07/22 03:57:07;;;;;;;4.60;1.50;;;;;;;11.98;100.00;100123.97;5031085;28;20384;-64
2023/07/22 03:59:35;;;;;;;5.72;1.58;;;;;;;12.00;100.00;100129.13;5029981;28;20328;-64
2023/07/22 04:02:03;;;;;;;6.13;2.05;;;;;;;12.02;100.00;100128.09;5022094;28;20463;-65
2023/07/22 04:04:29;;;;;;;6.95;1.50;;;;;;;12.06;100.00;100113.91;5048678;28;20441;-64
2023/07/22 04:06:56;;;;;;;5.45;1.95;;;;;;;12.08;100.00;100116.47;5049116;28;20064;-65
2023/07/22 04:09:23;;;;;;;5.38;1.73;;;;;;;12.03;100.00;100121.09;5049256;28;20123;-65
2023/07/22 04:11:49;;;;;;;3.85;1.52;;;;;;;11.99;100.00;100114.31;5024986;28;20464;-64
2023/07/22 04:14:16;;;;;;;4.65;1.60;;;;;;;12.12;100.00;100110.94;5032177;28;20053;-65
2023/07/22 04:16:42;;;;;;;5.57;1.70;;;;;;;12.24;100.00;100105.97;5049903;28;20407;-64
2023/07/22 04:19:09;;;;;;;5.07;1.58;;;;;;;12.36;100.00;100100.06;5037813;28;20057;-64
2023/07/22 04:21:36;;;;;;;5.82;2.03;;;;;;;12.24;100.00;100077.94;5012017;28;20491;-65
2023/07/22 04:24:03;;;;;;;6.50;1.98;;;;;;;12.26;100.00;100085.75;5041784;28;20044;-64
2023/07/22 04:26:30;;;;;;;4.63;1.50;;;;;;;12.31;100.00;100089.81;5053002;28;20047;-65
2023/07/22 04:28:57;;;;;;;5.82;1.77;;;;;;;12.42;100.00;100091.84;5033081;28;20049;-65
2023/07/22 04:31:23;;;;;;;4.82;1.58;;;;;;;12.35;100.00;100083.44;5043416;28;20056;-64
2023/07/22 04:33:50;;;;;;;6.25;1.70;;;;;;;12.64;100.00;100088.88;5035771;28;20530;-64
2023/07/22 04:36:17;;;;;;;5.22;1.70;;;;;;;13.38;100.00;100081.13;5036133;28;20045;-65
2023/07/22 04:38:43;;;;;;;4.90;1.70;;;;;;;14.12;100.00;100074.00;5049852;28;20049;-65
2023/07/22 04:41:10;;;;;;;8.35;2.60;;;;;;;14.11;100.00;100078.44;5046638;28;20052;-66
2023/07/22 04:43:39;;;;;;;7.38;2.60;;;;;;;14.16;100.00;100091.28;5050195;28;20437;-65
2023/07/22 04:46:07;;;;;;;4.97;1.90;;;;;;;14.28;100.00;100072.06;5041457;28;20550;-65
2023/07/22 04:48:34;;;;;;;5.47;1.60;;;;;;;14.73;100.00;100101.72;5052549;28;20056;-65
2023/07/22 04:51:00;;;;;;;5.15;1.67;;;;;;;15.55;100.00;100091.84;5039951;28;20049;-65
2023/07/22 04:53:27;;;;;;;4.55;1.60;;;;;;;16.20;100.00;100099.72;5049734;28;20060;-65
2023/07/22 04:55:55;;;;;;;4.63;1.60;;;;;;;15.23;100.00;100101.09;5031612;28;20037;-65
2023/07/22 04:58:21;;;;;;;4.88;1.60;;;;;;;14.34;100.00;100091.91;5032341;28;20053;-65
2023/07/22 05:00:48;;;;;;;4.07;1.48;;;;;;;14.05;100.00;100084.91;5028546;28;20045;-65
2023/07/22 05:03:18;;;;;;;5.20;1.90;;;;;;;13.97;100.00;100099.47;5047192;28;20442;-65
2023/07/22 05:05:46;;;;;;;4.55;1.60;;;;;;;13.86;100.00;100101.00;5033751;28;20188;-65
2023/07/22 05:08:12;;;;;;;4.88;1.80;;;;;;;13.74;100.00;100096.50;5051944;28;20053;-65
2023/07/22 05:10:39;;;;;;;4.35;1.50;;;;;;;13.67;100.00;100092.53;5041034;28;20507;-65
2023/07/22 05:13:06;;;;;;;6.88;1.60;;;;;;;13.69;100.00;100088.03;5039470;28;20068;-65
2023/07/22 05:15:33;;;;;;;4.28;1.50;;;;;;;13.89;100.00;100097.31;5051418;28;20048;-66
2023/07/22 05:17:59;;;;;;;5.63;1.80;;;;;;;13.77;100.00;100090.19;5049840;28;20132;-65
2023/07/22 05:20:27;;;;;;;4.65;1.80;;;;;;;13.70;100.00;100102.03;5038743;28;20509;-65
2023/07/22 05:22:55;;;;;;;5.60;1.77;;;;;;;13.70;100.00;100086.25;5019550;28;20057;-65
2023/07/22 05:25:23;;;;;;;5.13;1.60;;;;;;;13.90;100.00;100083.25;5050902;28;20048;-65
2023/07/22 05:27:50;;;;;;;5.22;1.60;;;;;;;13.93;100.00;100079.56;5052452;28;20139;-65
2023/07/22 05:30:16;;;;;;;6.43;1.73;;;;;;;13.91;100.00;100078.81;5047119;28;20450;-65
2023/07/22 05:32:58;;;;;;;6.28;1.70;;;;;;;13.82;100.00;100062.66;5037382;28;20053;-65
2023/07/22 05:35:26;;;;;;;5.78;1.70;;;;;;;14.05;100.00;100076.16;5049145;28;20069;-65
2023/07/22 05:37:56;;;;;;;4.85;1.70;;;;;;;14.16;100.00;100073.69;5025940;28;20056;-65
2023/07/22 05:40:24;;;;;;;6.35;1.95;;;;;;;14.11;100.00;100081.06;5024923;28;20080;-65
2023/07/22 05:42:50;;;;;;;7.82;1.70;;;;;;;14.04;100.00;100074.47;5029088;28;20061;-65
2023/07/22 05:45:17;;;;;;;5.35;1.80;;;;;;;14.11;100.00;100077.56;5035132;28;20072;-65
2023/07/22 05:47:44;;;;;;;6.28;2.05;;;;;;;13.88;100.00;100077.19;5051600;28;20056;-65
2023/07/22 05:50:10;;;;;;;9.65;2.85;;;;;;;13.45;100.00;100078.03;5044686;28;20477;-65
2023/07/22 05:52:37;;;;;;;6.13;2.28;;;;;;;13.43;100.00;100074.66;5051685;28;20045;-65
2023/07/22 05:55:04;;;;;;;8.25;2.60;;;;;;;13.33;100.00;100073.50;5038062;28;20132;-65
2023/07/22 05:57:31;;;;;;;7.32;2.20;;;;;;;13.26;100.00;100075.66;5044729;28;20045;-65
2023/07/22 05:59:58;;;;;;;5.93;2.33;;;;;;;13.43;100.00;100073.81;5009382;28;20518;-65
2023/07/22 06:02:35;;;;;;;5.93;2.13;;;;;;;13.82;100.00;100072.34;5038496;28;20052;-64
2023/07/22 06:05:01;;;;;;;6.20;2.15;;;;;;;14.56;100.00;100076.44;5041498;28;20053;-66
2023/07/22 06:07:28;;;;;;;7.32;1.83;;;;;;;15.67;100.00;100066.41;5050663;28;20056;-65
2023/07/22 06:09:55;;;;;;;5.47;1.90;;;;;;;15.88;100.00;100079.06;5046405;28;20124;-66
2023/07/22 06:12:22;;;;;;;7.40;2.15;;;;;;;16.16;100.00;100085.91;5043661;28;20049;-66
2023/07/22 06:14:48;;;;;;;5.20;1.60;;;;;;;16.41;100.00;100084.13;5042724;28;20539;-66
2023/07/22 06:17:15;;;;;;;4.70;1.50;;;;;;;17.18;100.00;100074.03;5039446;28;20049;-66
2023/07/22 06:19:44;;;;;;;4.88;1.40;;;;;;;17.81;100.00;100079.81;5034459;28;20057;-66
2023/07/22 06:22:11;;;;;;;5.63;1.48;;;;;;;18.15;100.00;100079.81;5013164;28;20049;-65
2023/07/22 06:24:38;;;;;;;5.45;1.55;;;;;;;18.33;100.00;100077.47;5031157;28;20053;-65
2023/07/22 06:27:04;;;;;;;7.32;1.83;;;;;;;18.57;100.00;100073.78;5033271;28;20136;-66
2023/07/22 06:29:31;;;;;;;6.07;1.63;;;;;;;18.47;100.00;100079.03;5048828;28;20048;-66
2023/07/22 06:31:58;;;;;;;5.20;1.70;;;;;;;18.51;100.00;100079.63;5040196;28;20048;-66
2023/07/22 06:34:24;;;;;;;5.85;1.98;;;;;;;18.72;100.00;100083.16;5032434;28;20045;-66
2023/07/22 06:36:51;;;;;;;4.93;1.67;;;;;;;19.50;100.00;100082.91;5030184;28;20053;-65
2023/07/22 06:39:18;;;;;;;7.18;1.85;;;;;;;19.60;100.00;100085.59;5032911;28;20072;-65
2023/07/22 06:41:45;;;;;;;8.07;2.10;;;;;;;19.53;100.00;100072.88;5026341;28;20045;-65
2023/07/22 06:44:11;;;;;;;5.38;1.83;;;;;;;19.93;100.00;100073.91;5029179;28;20053;-65
2023/07/22 06:46:38;;;;;;;6.88;2.00;;;;;;;19.60;100.00;100077.63;5029955;28;20602;-67
2023/07/22 06:49:05;;;;;;;6.03;1.88;;;;;;;19.99;100.00;100075.19;5030056;28;20061;-67
2023/07/22 06:51:33;;;;;;;8.10;2.40;;;;;;;19.49;100.00;100071.44;5024141;28;20067;-65
2023/07/22 06:54:03;;;;;;;6.50;1.92;;;;;;;19.43;100.00;100052.56;5012377;28;20048;-67
2023/07/22 06:56:30;;;;;;;8.00;2.22;;;;;;;18.61;100.00;100059.34;5030133;28;20045;-66
2023/07/22 06:58:57;;;;;;;5.53;1.75;;;;;;;18.42;100.00;100057.34;5012992;28;20075;-66
2023/07/22 07:01:23;;;;;;;6.53;2.00;;;;;;;17.91;100.00;100066.69;5021446;28;20060;-67
2023/07/22 07:03:51;;;;;;;9.38;2.42;;;;;;;18.33;100.00;100074.84;5028415;28;20057;-65
2023/07/22 07:06:20;;;;;;;7.45;2.47;;;;;;;18.31;100.00;100066.16;5028940;28;20136;-65
2023/07/22 07:08:49;;;;;;;7.38;2.25;;;;;;;18.00;100.00;100075.72;5016346;28;20041;-65
2023/07/22 07:11:16;;;;;;;6.53;2.03;;;;;;;18.28;100.00;100061.09;5013971;28;20053;-66
2023/07/22 07:13:43;;;;;;;7.35;2.40;;;;;;;18.03;100.00;100064.88;5027500;28;20535;-66
2023/07/22 07:16:27;;;;;;;5.72;1.88;;;;;;;18.22;100.00;100064.25;5028967;28;20131;-66
2023/07/22 07:18:55;;;;;;;6.75;2.00;;;;;;;18.18;100.00;100060.16;5028756;28;20049;-66
2023/07/22 07:21:22;;;;;;;5.53;1.90;;;;;;;18.11;100.00;100064.25;5027048;28;20084;-67
2023/07/22 07:23:51;;;;;;;7.50;2.15;;;;;;;18.49;100.00;100069.13;5015796;28;20572;-66
2023/07/22 07:26:19;;;;;;;5.28;1.98;;;;;;;18.85;100.00;100059.13;5028743;28;20467;-66
2023/07/22 07:28:47;;;;;;;6.28;2.03;;;;;;;18.81;100.00;100054.19;5027626;28;20693;-66
2023/07/22 07:31:14;;;;;;;6.43;2.20;;;;;;;18.95;100.00;100056.56;5010229;28;20061;-65
2023/07/22 07:33:42;;;;;;;8.02;2.30;;;;;;;18.55;100.00;100067.78;5028494;28;20049;-65
2023/07/22 07:36:09;;;;;;;6.13;1.90;;;;;;;18.76;100.00;100067.84;5015720;28;20411;-65
2023/07/22 07:38:37;;;;;;;7.72;1.98;;;;;;;19.01;100.00;100066.66;5028151;28;20076;-65
2023/07/22 07:41:11;;;;;;;6.40;1.80;;;;;;;19.15;100.00;100052.25;5014700;28;20053;-66
2023/07/22 07:43:42;;;;;;;6.45;1.65;;;;;;;19.64;100.00;100061.31;5027105;28;20129;-64
2023/07/22 07:46:21;;;;;;;7.05;1.70;;;;;;;19.98;100.00;100065.53;4995660;28;20058;-65
2023/07/22 07:48:51;;;;;;;5.07;1.67;;;;;;;19.98;100.00;100062.88;5021535;28;20050;-65
2023/07/22 07:51:19;;;;;;;5.57;1.70;;;;;;;19.47;100.00;100064.59;5027243;28;20060;-65
2023/07/22 07:53:47;;;;;;;5.13;1.80;;;;;;;19.80;100.00;100068.00;5020597;28;20096;-65
2023/07/22 07:56:19;;;;;;;6.13;2.00;;;;;;;19.50;100.00;100059.00;5027129;28;20061;-66
2023/07/22 07:58:47;;;;;;;5.72;1.92;;;;;;;19.83;100.00;100071.22;5032227;28;20050;-66
2023/07/22 08:01:14;;;;;;;6.80;1.60;;;;;;;19.98;100.00;100077.00;5019506;28;20046;-65
2023/07/22 08:03:42;;;;;;;5.20;1.55;;;;;;;19.98;100.00;100068.22;5035634;28;20045;-65
2023/07/22 08:06:10;;;;;;;5.68;1.88;;;;;;;20.13;100.00;100076.63;5027315;28;20406;-66
2023/07/22 08:08:38;;;;;;;6.30;1.90;;;;;;;20.26;100.00;100074.56;5031616;28;20041;-66
2023/07/22 08:11:13;;;;;;;7.10;2.22;;;;;;;19.61;100.00;100074.84;5031129;28;20537;-66
2023/07/22 08:13:41;;;;;;;7.18;2.25;;;;;;;19.99;100.00;100072.53;5030340;28;20052;-67
2023/07/22 08:16:09;;;;;;;5.80;1.80;;;;;;;19.60;100.00;100069.66;5040198;28;20041;-65
2023/07/22 08:18:38;;;;;;;5.85;1.90;;;;;;;19.96;100.00;100071.00;5027999;28;20049;-65
2023/07/22 08:21:09;;;;;;;6.68;1.88;;;;;;;20.52;100.00;100068.72;5028391;28;20053;-66
2023/07/22 08:23:36;;;;;;;8.45;2.40;;;;;;;20.54;100.00;100066.78;5029649;28;20053;-66
2023/07/22 08:26:08;;;;;;;7.03;2.22;;;;;;;20.51;100.00;100075.88;5030678;28;20042;-66
2023/07/22 08:28:36;;;;;;;6.07;1.80;;;;;;;20.53;100.00;100065.94;5023501;28;20049;-65
2023/07/22 08:31:07;;;;;;;6.63;1.60;;;;;;;20.48;100.00;100068.16;5012442;28;20049;-66
2023/07/22 08:33:35;;;;;;;6.97;2.10;;;;;;;20.79;100.00;100068.09;5031224;28;20136;-65
2023/07/22 08:36:08;;;;;;;5.65;1.70;;;;;;;20.85;100.00;100070.19;5003038;28;20065;-66
2023/07/22 08:38:36;;;;;;;6.63;2.20;;;;;;;20.93;100.00;100048.19;5028154;28;20053;-65
2023/07/22 08:41:03;;;;;;;7.47;2.45;;;;;;;20.64;100.00;100057.84;5025903;28;20048;-65
2023/07/22 08:43:30;;;;;;;8.07;2.28;;;;;;;20.62;100.00;100056.31;5024543;28;20284;-65
2023/07/22 08:46:01;;;;;;;9.40;2.40;;;;;;;20.48;100.00;100062.84;5028980;28;20162;-66
2023/07/22 08:48:34;;;;;;;8.65;2.00;;;;;;;20.74;100.00;100065.84;5013160;28;20056;-66
2023/07/22 08:51:10;;;;;;;6.70;1.85;;;;;;;20.60;100.00;100066.22;5029751;28;20053;-66
2023/07/22 08:53:38;;;;;;;7.28;2.10;;;;;;;20.24;100.00;100064.09;5025960;28;20065;-66
2023/07/22 08:56:08;;;;;;;11.13;2.63;;;;;;;20.27;100.00;100057.63;5010265;28;20053;-66
2023/07/22 08:58:36;;;;;;;7.20;2.15;;;;;;;20.02;100.00;100065.13;5028822;28;20049;-66
2023/07/22 09:01:03;;;;;;;8.63;2.05;;;;;;;20.15;100.00;100040.13;5024280;28;20060;-66
2023/07/22 09:03:30;;;;;;;7.90;2.47;;;;;;;20.19;100.00;100060.16;5030496;28;20049;-66
2023/07/22 09:05:57;;;;;;;6.15;2.00;;;;;;;20.21;100.00;100051.06;5025225;28;20054;-66
2023/07/22 09:08:24;;;;;;;5.85;2.17;;;;;;;20.23;100.00;100043.78;5030884;28;20052;-66
2023/07/22 09:10:50;;;;;;;7.18;2.40;;;;;;;20.17;100.00;100054.09;5022726;28;20510;-66
2023/07/22 09:13:20;;;;;;;6.47;1.92;;;;;;;19.88;100.00;100057.53;5014567;28;20103;-66
2023/07/22 09:15:50;;;;;;;9.48;2.65;;;;;;;19.78;100.00;100051.31;5031929;28;20049;-66
2023/07/22 09:18:17;;;;;;;6.18;2.08;;;;;;;19.94;100.00;100053.47;5014376;28;20169;-66
2023/07/22 09:20:43;;;;;;;8.15;2.55;;;;;;;19.99;100.00;100052.13;5027844;28;20055;-66
2023/07/22 09:23:11;;;;;;;7.38;2.30;;;;;;;19.71;100.00;100048.38;5037779;28;20107;-66
2023/07/22 09:25:41;;;;;;;8.35;2.60;;;;;;;19.90;100.00;100059.09;5016557;28;20049;-66
2023/07/22 09:28:09;;;;;;;7.78;2.30;;;;;;;20.08;100.00;100061.09;5025386;28;20145;-66
2023/07/22 09:30:39;;;;;;;7.07;2.13;;;;;;;20.01;100.00;100057.28;5025038;28;20053;-65
2023/07/22 09:33:25;;;;;;;7.30;2.65;;;;;;;19.94;100.00;100061.47;5005151;28;20123;-66
2023/07/22 09:35:55;;;;;;;9.75;2.97;;;;;;;19.86;100.00;100047.03;5022881;28;20419;-65
2023/07/22 09:38:26;;;;;;;8.25;2.60;;;;;;;20.27;100.00;100061.16;5031162;28;20056;-66
2023/07/22 09:40:55;;;;;;;8.07;2.70;;;;;;;20.08;100.00;100048.66;5012836;28;20049;-66
2023/07/22 09:43:23;;;;;;;7.18;2.47;;;;;;;20.20;100.00;100049.41;5011328;28;20132;-65
2023/07/22 09:45:50;;;;;;;6.95;2.38;;;;;;;20.82;100.00;100055.34;5029908;28;20498;-66
2023/07/22 09:48:17;;;;;;;7.32;2.60;;;;;;;20.79;100.00;100054.81;5028786;28;20049;-66
2023/07/22 09:50:44;;;;;;;7.43;2.40;;;;;;;20.33;100.00;100062.41;5025722;28;20055;-65
2023/07/22 09:53:15;;;;;;;6.78;2.33;;;;;;;20.50;100.00;100047.59;5003843;28;20054;-66
2023/07/22 09:55:43;;;;;;;7.97;3.10;;;;;;;20.38;100.00;100059.34;5034062;28;20068;-66
2023/07/22 09:58:14;;;;;;;7.50;2.30;;;;;;;20.66;100.00;100060.38;5014585;28;20054;-66
2023/07/22 10:00:48;;;;;;;7.90;2.22;;;;;;;20.62;100.00;100064.31;5035026;28;20053;-66
2023/07/22 10:03:16;;;;;;;6.65;2.00;;;;;;;20.73;100.00;100068.66;5012139;28;20116;-66
2023/07/22 10:05:46;;;;;;;6.53;2.10;;;;;;;20.28;100.00;100054.84;5025719;28;20136;-66
2023/07/22 10:08:18;;;;;;;6.20;1.95;;;;;;;20.49;100.00;100060.06;5031891;28;20041;-66
2023/07/22 10:10:45;;;;;;;6.95;2.50;;;;;;;20.04;100.00;100060.53;5019393;28;20111;-66
2023/07/22 10:13:12;;;;;;;9.68;2.60;;;;;;;19.99;100.00;100060.09;5010086;28;20057;-66
2023/07/22 10:15:38;;;;;;;8.13;2.47;;;;;;;20.30;100.00;100057.38;5026710;28;20045;-66
2023/07/22 10:18:05;;;;;;;7.32;2.30;;;;;;;20.06;100.00;100058.59;5009409;28;20465;-66
2023/07/22 10:20:36;;;;;;;7.97;2.55;;;;;;;20.35;100.00;100054.31;5018665;28;20058;-66
2023/07/22 10:23:03;;;;;;;7.57;2.20;;;;;;;19.99;100.00;100056.59;5025147;28;20050;-65
2023/07/22 10:25:30;;;;;;;7.07;2.25;;;;;;;19.73;100.00;100060.56;5037094;28;20131;-66
2023/07/22 10:27:57;;;;;;;8.13;2.50;;;;;;;19.76;100.00;100059.47;5034488;28;20429;-66
2023/07/22 10:30:24;;;;;;;7.53;2.55;;;;;;;19.59;100.00;100034.31;5028696;28;20482;-66
2023/07/22 10:32:52;;;;;;;7.43;2.67;;;;;;;19.91;100.00;100049.28;5025585;28;20057;-65
2023/07/22 10:35:31;;;;;;;7.53;2.72;;;;;;;20.10;100.00;100057.31;5027891;28;20051;-66
2023/07/22 10:38:08;;;;;;;7.38;2.35;;;;;;;20.24;100.00;100055.28;5030029;28;20046;-66
2023/07/22 10:40:54;;;;;;;8.23;2.50;;;;;;;20.05;100.00;100048.09;5022015;28;20045;-66
2023/07/22 10:43:30;;;;;;;7.03;2.35;;;;;;;19.66;100.00;100053.22;5029993;28;20434;-66
2023/07/22 10:45:59;;;;;;;7.72;2.42;;;;;;;19.76;100.00;100048.84;5018125;28;20127;-66
2023/07/22 10:48:27;;;;;;;9.25;2.67;;;;;;;19.78;100.00;100054.84;5040142;28;20128;-65
2023/07/22 10:51:04;;;;;;;7.43;2.50;;;;;;;20.13;100.00;100047.41;5024813;28;20525;-65
2023/07/22 10:53:30;;;;;;;6.28;2.30;;;;;;;20.17;100.00;100049.66;5029935;28;20490;-65
2023/07/22 10:56:28;;;;;;;8.57;2.38;;;;;;;19.97;100.00;100053.22;5026802;28;20049;-65
2023/07/22 10:58:58;;;;;;;8.65;2.50;;;;;;;19.98;100.00;100045.13;5028154;28;20080;-65
2023/07/22 11:01:27;;;;;;;7.28;2.28;;;;;;;19.95;100.00;100044.56;5037861;28;20430;-65
2023/07/22 11:04:13;;;;;;;7.75;2.45;;;;;;;20.14;100.00;100043.78;5031233;28;20045;-65
2023/07/22 11:06:52;;;;;;;8.00;2.67;;;;;;;19.60;100.00;100045.78;5029197;28;20533;-65
2023/07/22 11:09:34;;;;;;;6.45;2.50;;;;;;;19.93;100.00;100047.34;5010194;28;20045;-65
2023/07/22 11:12:12;;;;;;;9.02;2.50;;;;;;;19.94;100.00;100030.44;5024517;28;20132;-65
2023/07/22 11:14:49;;;;;;;8.88;2.45;;;;;;;19.78;100.00;100035.41;5021386;28;20045;-65
2023/07/22 11:17:18;;;;;;;9.70;3.13;;;;;;;20.04;100.00;100033.97;5033942;28;20048;-65
2023/07/22 11:19:45;;;;;;;6.45;2.13;;;;;;;19.95;100.00;100040.06;5039040;28;20052;-65
2023/07/22 11:22:12;;;;;;;8.70;2.63;;;;;;;19.77;100.00;100031.06;5026397;28;20056;-65